createdAt,value
2022-11-13T00:02:27.321Z,2.90
2022-11-13T00:05:13.290Z,2.90
2022-11-13T00:07:58.778Z,2.80
2022-11-13T00:10:44.259Z,2.80
2022-11-13T00:13:30.655Z,2.80
2022-11-13T00:16:20.592Z,2.80
2022-11-13T00:19:06.358Z,2.80
2022-11-13T00:21:51.768Z,2.80
2022-11-13T00:24:37.252Z,2.70
2022-11-13T00:27:22.811Z,2.60
2022-11-13T00:30:09.074Z,2.70
2022-11-13T00:32:54.668Z,2.70
2022-11-13T00:35:40.566Z,2.70
2022-11-13T00:38:26.291Z,2.70
2022-11-13T00:41:12.691Z,2.60
2022-11-13T00:43:58.164Z,2.60
2022-11-13T00:46:43.685Z,2.60
2022-11-13T00:49:29.166Z,2.50
2022-11-13T00:52:14.763Z,2.50
2022-11-13T00:55:00.795Z,2.40
2022-11-13T00:57:46.301Z,2.40
2022-11-13T01:00:32.698Z,2.50
2022-11-13T01:03:18.372Z,2.50
2022-11-13T01:06:13.683Z,2.60
2022-11-13T01:08:59.986Z,2.80
2022-11-13T01:11:45.739Z,2.90
2022-11-13T01:14:31.047Z,2.90
2022-11-13T01:17:16.528Z,2.90
2022-11-13T01:20:02.004Z,3.00
2022-11-13T01:22:47.540Z,3.10
2022-11-13T01:25:33.425Z,3.00
2022-11-13T01:28:19.082Z,3.20
2022-11-13T01:31:11.311Z,3.20
2022-11-13T01:33:57.562Z,3.30
2022-11-13T01:36:42.896Z,3.40
2022-11-13T01:39:28.326Z,3.40
2022-11-13T01:42:13.723Z,3.40
2022-11-13T01:45:02.226Z,3.40
2022-11-13T01:47:47.655Z,3.40
2022-11-13T01:50:33.107Z,3.50
2022-11-13T01:53:19.454Z,3.40
2022-11-13T01:56:05.553Z,3.50
2022-11-13T01:59:07.326Z,3.40
2022-11-13T02:01:55.594Z,3.20
2022-11-13T02:04:41.382Z,3.20
2022-11-13T02:07:27.025Z,3.30
2022-11-13T02:10:12.896Z,3.40
2022-11-13T02:12:58.768Z,3.50
2022-11-13T02:15:44.926Z,3.50
2022-11-13T02:18:31.949Z,3.50
2022-11-13T02:22:08.312Z,3.70
2022-11-13T02:24:55.121Z,3.70
2022-11-13T02:27:46.198Z,3.80
2022-11-13T02:30:35.199Z,3.70
2022-11-13T02:33:31.450Z,3.80
2022-11-13T02:36:20.534Z,4.00
2022-11-13T02:39:10.584Z,4.00
2022-11-13T02:41:56.002Z,3.90
2022-11-13T02:44:41.470Z,4.10
2022-11-13T02:47:27.392Z,3.90
2022-11-13T02:50:13.323Z,4.10
2022-11-13T02:52:59.419Z,4.10
2022-11-13T02:55:45.168Z,4.20
2022-11-13T02:58:31.128Z,4.10
2022-11-13T03:01:17.115Z,4.20
2022-11-13T03:04:03.614Z,4.40
2022-11-13T03:06:49.332Z,4.20
2022-11-13T03:09:35.313Z,4.40
2022-11-13T03:12:20.681Z,4.50
2022-11-13T03:15:08.041Z,4.40
2022-11-13T03:17:54.040Z,4.50
2022-11-13T03:20:43.140Z,4.40
2022-11-13T03:23:28.776Z,4.50
2022-11-13T03:26:17.049Z,4.40
2022-11-13T03:29:02.645Z,4.40
2022-11-13T03:31:48.315Z,4.40
2022-11-13T03:34:34.200Z,4.40
2022-11-13T03:37:19.759Z,4.50
2022-11-13T03:40:06.176Z,4.50
2022-11-13T03:42:51.849Z,4.50
2022-11-13T03:45:37.227Z,4.50
2022-11-13T03:48:22.872Z,4.30
2022-11-13T03:51:08.551Z,4.10
2022-11-13T03:53:54.992Z,3.90
2022-11-13T03:56:40.796Z,3.80
2022-11-13T03:59:26.113Z,3.60
2022-11-13T04:02:11.430Z,3.50
2022-11-13T04:04:56.862Z,3.40
2022-11-13T04:07:42.461Z,3.30
2022-11-13T04:10:28.396Z,3.20
2022-11-13T04:13:14.136Z,3.10
2022-11-13T04:15:59.674Z,3.00
2022-11-13T04:18:45.097Z,2.90
2022-11-13T04:21:30.671Z,2.90
2022-11-13T04:24:16.053Z,2.80
2022-11-13T04:27:01.445Z,2.70
2022-11-13T04:29:46.818Z,2.60
2022-11-13T04:32:33.015Z,2.60
2022-11-13T04:35:18.590Z,2.50
2022-11-13T04:38:04.324Z,2.40
2022-11-13T04:41:11.127Z,2.40
2022-11-13T04:43:56.595Z,2.30
2022-11-13T04:46:42.237Z,2.30
2022-11-13T04:49:27.560Z,2.30
2022-11-13T04:52:13.212Z,2.20
2022-11-13T04:54:58.878Z,2.20
2022-11-13T04:57:43.995Z,2.10
2022-11-13T05:00:29.524Z,2.10
2022-11-13T05:03:14.859Z,2.10
2022-11-13T05:06:09.258Z,2.10
2022-11-13T05:08:54.900Z,2.20
2022-11-13T05:11:40.661Z,2.20
2022-11-13T05:14:26.164Z,2.10
2022-11-13T05:17:13.078Z,2.10
2022-11-13T05:19:58.772Z,2.10
2022-11-13T05:22:44.200Z,2.10
2022-11-13T05:25:30.959Z,2.00
2022-11-13T05:28:16.893Z,2.00
2022-11-13T05:31:12.043Z,1.90
2022-11-13T05:34:01.290Z,1.90
2022-11-13T05:36:51.247Z,1.80
2022-11-13T05:39:36.652Z,1.90
2022-11-13T05:42:22.145Z,1.90
2022-11-13T05:45:08.390Z,1.90
2022-11-13T05:47:54.229Z,1.90
2022-11-13T05:50:39.557Z,1.90
2022-11-13T05:53:24.981Z,1.90
2022-11-13T05:56:19.473Z,1.90
2022-11-13T05:59:06.274Z,1.90
2022-11-13T06:01:51.984Z,1.90
2022-11-13T06:04:37.446Z,1.90
2022-11-13T06:07:23.010Z,1.90
2022-11-13T06:10:09.432Z,1.90
2022-11-13T06:12:55.570Z,2.00
2022-11-13T06:15:41.003Z,2.00
2022-11-13T06:18:27.019Z,2.00
2022-11-13T06:21:23.318Z,2.10
2022-11-13T06:24:12.095Z,2.10
2022-11-13T06:26:57.484Z,2.10
2022-11-13T06:29:43.136Z,2.20
2022-11-13T06:32:28.870Z,2.20
2022-11-13T06:35:14.421Z,2.20
2022-11-13T06:37:59.816Z,2.30
2022-11-13T06:40:45.263Z,2.20
2022-11-13T06:43:31.438Z,2.20
2022-11-13T06:46:23.559Z,2.20
2022-11-13T06:49:09.114Z,2.20
2022-11-13T06:51:54.588Z,2.20
2022-11-13T06:54:40.007Z,2.30
2022-11-13T06:57:25.520Z,2.20
2022-11-13T07:00:11.899Z,2.30
2022-11-13T07:02:57.567Z,2.40
2022-11-13T07:05:43.441Z,2.40
2022-11-13T07:08:29.427Z,2.50
2022-11-13T07:11:19.103Z,2.50
2022-11-13T07:14:05.132Z,2.60
2022-11-13T07:17:08.517Z,2.70
2022-11-13T07:19:55.521Z,2.60
2022-11-13T07:22:41.139Z,2.70
2022-11-13T07:25:27.829Z,2.70
2022-11-13T07:28:13.695Z,2.90
2022-11-13T07:31:00.115Z,3.10
2022-11-13T07:33:49.336Z,3.10
2022-11-13T07:36:34.753Z,3.10
2022-11-13T07:39:20.308Z,3.30
2022-11-13T07:42:05.983Z,3.40
2022-11-13T07:44:55.458Z,3.50
2022-11-13T07:47:41.280Z,3.50
2022-11-13T07:50:31.396Z,3.70
2022-11-13T07:53:18.334Z,3.70
2022-11-13T07:56:05.301Z,3.90
2022-11-13T07:58:50.861Z,4.10
2022-11-13T08:01:36.867Z,4.10
2022-11-13T08:04:22.267Z,4.20
2022-11-13T08:07:08.548Z,4.20
2022-11-13T08:09:54.441Z,4.30
2022-11-13T08:12:39.941Z,4.50
2022-11-13T08:15:25.454Z,4.50
2022-11-13T08:18:11.050Z,4.40
2022-11-13T08:20:56.537Z,4.50
2022-11-13T08:23:42.941Z,4.60
2022-11-13T08:26:29.163Z,4.70
2022-11-13T08:29:15.137Z,4.80
2022-11-13T08:32:00.565Z,4.70
2022-11-13T08:34:46.396Z,4.90
2022-11-13T08:37:33.788Z,5.10
2022-11-13T08:40:19.868Z,5.10
2022-11-13T08:43:05.465Z,5.20
2022-11-13T08:45:51.228Z,5.30
2022-11-13T08:48:37.780Z,5.30
2022-11-13T08:51:23.696Z,5.40
2022-11-13T08:54:09.185Z,5.40
2022-11-13T08:56:57.881Z,5.70
2022-11-13T08:59:45.213Z,5.70
2022-11-13T09:02:30.625Z,5.70
2022-11-13T09:05:16.349Z,5.60
2022-11-13T09:08:02.578Z,5.70
2022-11-13T09:10:48.323Z,5.80
2022-11-13T09:13:38.599Z,5.90
2022-11-13T09:16:27.171Z,5.90
2022-11-13T09:19:12.701Z,6.10
2022-11-13T09:21:58.658Z,6.20
2022-11-13T09:24:44.595Z,6.40
2022-11-13T09:27:30.244Z,6.50
2022-11-13T09:30:16.699Z,6.60
2022-11-13T09:33:02.512Z,6.70
2022-11-13T09:35:48.253Z,6.70
2022-11-13T09:38:33.773Z,6.90
2022-11-13T09:41:28.621Z,6.90
2022-11-13T09:44:42.099Z,7.00
2022-11-13T09:47:55.172Z,7.10
2022-11-13T09:50:41.180Z,7.10
2022-11-13T09:53:33.911Z,7.00
2022-11-13T09:56:27.938Z,7.10
2022-11-13T09:59:56.419Z,7.20
2022-11-13T10:03:46.319Z,7.30
2022-11-13T10:06:44.623Z,7.60
2022-11-13T10:09:55.128Z,7.60
2022-11-13T10:12:40.650Z,7.50
2022-11-13T10:15:27.610Z,7.60
2022-11-13T10:18:35.641Z,7.70
2022-11-13T10:21:47.221Z,7.80
2022-11-13T10:24:41.971Z,7.80
2022-11-13T10:27:27.530Z,7.90
2022-11-13T10:30:19.047Z,7.80
2022-11-13T10:33:08.748Z,7.90
2022-11-13T10:36:34.622Z,7.90
2022-11-13T10:39:20.549Z,8.10
2022-11-13T10:42:21.137Z,8.10
2022-11-13T10:45:17.373Z,8.20
2022-11-13T10:48:04.993Z,8.30
2022-11-13T10:51:04.484Z,8.50
2022-11-13T10:53:50.484Z,8.90
2022-11-13T10:56:36.800Z,9.80
2022-11-13T10:59:22.700Z,10.80
2022-11-13T11:02:22.475Z,11.30
2022-11-13T11:05:23.117Z,12.00
2022-11-13T11:08:11.183Z,12.60
2022-11-13T11:11:33.869Z,13.20
2022-11-13T11:14:41.632Z,14.20
2022-11-13T11:17:44.443Z,15.00
2022-11-13T11:20:41.354Z,16.00
2022-11-13T11:23:34.724Z,15.90
2022-11-13T11:26:42.766Z,16.10
2022-11-13T11:29:49.344Z,17.00
2022-11-13T11:32:42.952Z,17.60
2022-11-13T11:35:57.275Z,17.90
2022-11-13T11:39:06.298Z,19.20
2022-11-13T11:42:36.885Z,18.40
2022-11-13T11:45:34.054Z,18.50
2022-11-13T11:48:34.889Z,17.50
2022-11-13T11:51:52.173Z,18.20
2022-11-13T11:55:10.322Z,17.70
2022-11-13T11:58:28.166Z,17.40
2022-11-13T12:02:30.990Z,18.00
2022-11-13T12:05:26.071Z,18.60
2022-11-13T12:08:39.346Z,19.90
2022-11-13T12:11:35.498Z,20.50
2022-11-13T12:15:08.648Z,18.80
2022-11-13T12:18:36.182Z,18.50
2022-11-13T12:21:27.031Z,20.50
2022-11-13T12:24:27.608Z,21.30
2022-11-13T12:27:20.496Z,19.70
2022-11-13T12:30:18.125Z,20.70
2022-11-13T12:33:06.890Z,21.20
2022-11-13T12:35:53.792Z,19.90
2022-11-13T12:38:57.153Z,19.20
2022-11-13T12:42:08.967Z,20.70
2022-11-13T12:45:20.315Z,21.40
2022-11-13T12:48:36.291Z,21.80
2022-11-13T12:51:21.961Z,20.80
2022-11-13T12:54:10.860Z,20.30
2022-11-13T12:57:14.386Z,21.30
2022-11-13T13:00:25.655Z,21.20
2022-11-13T13:03:44.890Z,19.20
2022-11-13T13:07:06.707Z,20.60
2022-11-13T13:10:23.978Z,21.60
2022-11-13T13:13:42.167Z,21.50
2022-11-13T13:16:29.872Z,20.80
2022-11-13T13:19:30.292Z,20.30
2022-11-13T13:22:34.470Z,21.30
2022-11-13T13:25:34.550Z,21.70
2022-11-13T13:28:24.597Z,21.30
2022-11-13T13:31:13.301Z,22.40
2022-11-13T13:34:36.330Z,20.40
2022-11-13T13:38:01.356Z,21.20
2022-11-13T13:41:06.699Z,20.70
2022-11-13T13:44:02.852Z,20.60
2022-11-13T13:46:49.865Z,21.50
2022-11-13T13:49:36.563Z,20.30
2022-11-13T13:52:32.135Z,19.40
2022-11-13T13:55:37.641Z,19.10
2022-11-13T13:58:34.489Z,18.70
2022-11-13T14:01:33.918Z,19.40
2022-11-13T14:04:22.911Z,19.30
2022-11-13T14:07:30.046Z,18.90
2022-11-13T14:10:20.745Z,17.20
2022-11-13T14:13:06.210Z,15.60
2022-11-13T14:16:05.201Z,14.40
2022-11-13T14:18:50.708Z,13.40
2022-11-13T14:21:36.355Z,12.70
2022-11-13T14:24:30.168Z,12.10
2022-11-13T14:27:23.811Z,11.80
2022-11-13T14:30:27.795Z,11.50
2022-11-13T14:33:36.017Z,11.40
2022-11-13T14:36:34.217Z,10.90
2022-11-13T14:39:32.491Z,10.60
2022-11-13T14:42:28.545Z,10.40
2022-11-13T14:45:17.281Z,10.00
2022-11-13T14:48:53.466Z,9.90
2022-11-13T14:51:40.321Z,9.80
2022-11-13T14:55:07.964Z,9.60
2022-11-13T14:57:50.365Z,9.50
2022-11-13T15:00:38.412Z,9.50
2022-11-13T15:03:25.258Z,9.40
2022-11-13T15:06:24.589Z,9.30
2022-11-13T15:09:16.813Z,9.10
2022-11-13T15:12:02.345Z,9.00
2022-11-13T15:14:47.890Z,8.80
2022-11-13T15:17:33.453Z,8.70
2022-11-13T15:20:25.652Z,8.60
2022-11-13T15:23:16.099Z,8.50
2022-11-13T15:26:01.564Z,8.40
2022-11-13T15:28:47.990Z,8.30
2022-11-13T15:31:37.619Z,8.20
2022-11-13T15:34:24.000Z,8.10
2022-11-13T15:37:15.457Z,8.00
2022-11-13T15:40:01.580Z,8.00
2022-11-13T15:42:47.543Z,7.90
2022-11-13T15:45:33.293Z,7.80
2022-11-13T15:48:18.786Z,7.80
2022-11-13T15:51:04.821Z,7.70
2022-11-13T15:54:13.008Z,7.70
2022-11-13T15:56:58.584Z,7.60
2022-11-13T15:59:43.827Z,7.50
2022-11-13T16:02:29.463Z,7.50
2022-11-13T16:05:15.069Z,7.40
2022-11-13T16:08:00.616Z,7.30
2022-11-13T16:10:46.237Z,7.30
2022-11-13T16:13:32.117Z,7.20
2022-11-13T16:16:23.746Z,7.20
2022-11-13T16:19:16.188Z,7.20
2022-11-13T16:22:01.942Z,7.10
2022-11-13T16:24:47.551Z,7.20
2022-11-13T16:27:36.085Z,7.10
2022-11-13T16:30:27.891Z,7.10
2022-11-13T16:33:13.455Z,7.00
2022-11-13T16:35:58.983Z,7.00
2022-11-13T16:38:44.736Z,7.00
2022-11-13T16:41:32.136Z,6.90
2022-11-13T16:44:17.787Z,6.80
2022-11-13T16:47:03.402Z,6.80
2022-11-13T16:49:49.851Z,6.80
2022-11-13T16:52:35.457Z,6.70
2022-11-13T16:55:21.505Z,6.70
2022-11-13T16:58:07.124Z,6.70
2022-11-13T17:00:57.399Z,6.60
2022-11-13T17:03:45.811Z,6.60
2022-11-13T17:06:35.638Z,6.50
2022-11-13T17:09:21.182Z,6.50
2022-11-13T17:12:06.783Z,6.50
2022-11-13T17:14:52.305Z,6.40
2022-11-13T17:17:37.659Z,6.40
2022-11-13T17:20:23.267Z,6.50
2022-11-13T17:23:16.014Z,6.40
2022-11-13T17:26:04.148Z,6.40
2022-11-13T17:28:49.641Z,6.50
2022-11-13T17:31:35.513Z,6.40
2022-11-13T17:34:20.972Z,6.40
2022-11-13T17:37:06.557Z,6.30
2022-11-13T17:39:52.023Z,6.30
2022-11-13T17:42:37.362Z,6.30
2022-11-13T17:45:23.484Z,6.20
2022-11-13T17:48:09.227Z,6.10
2022-11-13T17:50:59.242Z,6.10
2022-11-13T17:53:44.847Z,6.10
2022-11-13T17:56:30.565Z,6.10
2022-11-13T17:59:16.346Z,6.00
2022-11-13T18:02:02.664Z,5.90
2022-11-13T18:04:49.089Z,5.80
2022-11-13T18:07:34.441Z,5.80
2022-11-13T18:10:20.537Z,5.80
2022-11-13T18:13:06.707Z,5.70
2022-11-13T18:15:52.710Z,5.70
2022-11-13T18:18:38.968Z,5.70
2022-11-13T18:21:31.404Z,5.70
2022-11-13T18:24:19.385Z,5.70
2022-11-13T18:27:08.252Z,5.60
2022-11-13T18:29:54.328Z,5.60
2022-11-13T18:32:39.892Z,5.60
2022-11-13T18:35:25.748Z,5.60
2022-11-13T18:38:11.301Z,5.60
2022-11-13T18:41:13.552Z,5.50
2022-11-13T18:43:59.152Z,5.50
2022-11-13T18:46:44.693Z,5.50
2022-11-13T18:49:30.051Z,5.50
2022-11-13T18:52:15.911Z,5.40
2022-11-13T18:55:02.052Z,5.40
2022-11-13T18:57:48.352Z,5.50
2022-11-13T19:00:33.772Z,5.60
2022-11-13T19:03:19.141Z,5.50
2022-11-13T19:06:10.209Z,5.50
2022-11-13T19:09:02.401Z,5.40
2022-11-13T19:11:48.316Z,5.30
2022-11-13T19:14:34.063Z,5.30
2022-11-13T19:17:19.338Z,5.30
2022-11-13T19:20:05.846Z,5.30
2022-11-13T19:22:51.373Z,5.20
2022-11-13T19:25:36.856Z,5.20
2022-11-13T19:28:22.937Z,5.10
2022-11-13T19:31:15.038Z,5.10
2022-11-13T19:34:04.685Z,5.20
2022-11-13T19:36:51.869Z,5.20
2022-11-13T19:39:38.062Z,5.20
2022-11-13T19:42:24.071Z,5.30
2022-11-13T19:45:10.188Z,5.30
2022-11-13T19:47:55.897Z,5.30
2022-11-13T19:50:43.767Z,5.30
2022-11-13T19:53:31.436Z,5.40
2022-11-13T19:56:20.786Z,5.40
2022-11-13T19:59:11.464Z,5.40
2022-11-13T20:01:56.990Z,5.40
2022-11-13T20:04:42.923Z,5.30
2022-11-13T20:07:29.146Z,5.30
2022-11-13T20:10:15.642Z,5.20
2022-11-13T20:13:01.504Z,5.20
2022-11-13T20:15:54.788Z,5.20
2022-11-13T20:18:42.478Z,5.20
2022-11-13T20:21:33.105Z,5.40
2022-11-13T20:24:19.185Z,5.50
2022-11-13T20:27:05.005Z,5.60
2022-11-13T20:29:50.630Z,5.80
2022-11-13T20:32:40.179Z,5.90
2022-11-13T20:35:26.174Z,6.00
2022-11-13T20:38:11.742Z,6.10
2022-11-13T20:40:57.910Z,6.30
2022-11-13T20:43:43.723Z,6.40
2022-11-13T20:46:30.768Z,6.50
2022-11-13T20:49:16.647Z,6.60
2022-11-13T20:52:04.608Z,6.60
2022-11-13T20:54:50.127Z,6.50
2022-11-13T20:57:40.744Z,6.50
2022-11-13T21:00:27.221Z,6.50
2022-11-13T21:03:13.668Z,6.50
2022-11-13T21:05:59.656Z,6.60
2022-11-13T21:08:46.176Z,6.50
2022-11-13T21:11:32.339Z,6.50
2022-11-13T21:14:17.764Z,6.50
2022-11-13T21:17:03.402Z,6.50
2022-11-13T21:19:49.413Z,6.40
2022-11-13T21:22:37.129Z,6.40
2022-11-13T21:25:23.351Z,6.30
2022-11-13T21:28:09.143Z,6.20
2022-11-13T21:30:54.941Z,6.30
2022-11-13T21:33:43.334Z,6.50
2022-11-13T21:36:29.907Z,6.60
2022-11-13T21:39:16.037Z,6.60
2022-11-13T21:42:01.938Z,6.70
2022-11-13T21:44:47.566Z,6.80
2022-11-13T21:47:33.851Z,6.90
2022-11-13T21:50:19.676Z,6.90
2022-11-13T21:53:05.328Z,6.90
2022-11-13T21:55:51.805Z,6.90
2022-11-13T21:58:40.409Z,6.90
2022-11-13T22:01:33.783Z,6.90
2022-11-13T22:04:23.416Z,6.90
2022-11-13T22:07:09.176Z,6.90
2022-11-13T22:09:55.344Z,6.90
2022-11-13T22:12:40.894Z,6.90
2022-11-13T22:15:26.307Z,6.90
2022-11-13T22:18:12.544Z,6.90
2022-11-13T22:21:08.024Z,6.90
2022-11-13T22:23:53.968Z,6.80
2022-11-13T22:26:43.349Z,6.80
2022-11-13T22:29:29.448Z,6.80
2022-11-13T22:32:15.567Z,6.70
2022-11-13T22:35:01.824Z,6.70
2022-11-13T22:37:47.911Z,6.70
2022-11-13T22:40:33.575Z,6.70
2022-11-13T22:43:19.150Z,6.60
2022-11-13T22:46:10.337Z,6.60
2022-11-13T22:48:58.219Z,6.50
2022-11-13T22:51:43.880Z,6.50
2022-11-13T22:54:29.546Z,6.50
2022-11-13T22:57:15.328Z,6.50
2022-11-13T23:00:01.089Z,6.50
2022-11-13T23:02:47.522Z,6.40
2022-11-13T23:05:36.199Z,6.40
2022-11-13T23:08:22.099Z,6.40
2022-11-13T23:11:15.594Z,6.40
2022-11-13T23:14:04.335Z,6.30
2022-11-13T23:16:50.097Z,6.30
2022-11-13T23:19:35.630Z,6.20
2022-11-13T23:22:21.483Z,6.20
2022-11-13T23:25:07.968Z,6.20
2022-11-13T23:27:53.450Z,6.20
2022-11-13T23:30:38.979Z,6.20
2022-11-13T23:33:24.869Z,6.20
2022-11-13T23:36:13.277Z,6.20
2022-11-13T23:38:59.065Z,6.20
2022-11-13T23:41:44.411Z,6.30
2022-11-13T23:44:30.226Z,6.20
2022-11-13T23:47:16.106Z,6.20
2022-11-13T23:50:01.642Z,6.20
2022-11-13T23:52:48.594Z,6.20
2022-11-13T23:55:35.015Z,6.20
2022-11-13T23:58:20.901Z,6.20
